Home > Products > Valid Products > MTR

000
SAUS45 KLKN 022254
MTRP68
METAR KP68 022253Z AUTO 28018G22KT 14/00 A3016 RMK AO1 SLP186
T01390000





000
SAUS45 KLKN 022156 COR
MTRP68
METAR KP68 022153Z AUTO 31007KT 17/M01 A3017 RMK AO1 SLP181
T01721006





000
SAUS45 KLKN 022155
MTRP68
METAR KP68 022153Z AUTO 31007KT 17/M01 A3017 RMK AO1 SLP181
T01721006





000
SAUS45 KLKN 022155
MTRP68
METAR KP68 022153Z AUTO 31007KT 17/M01 A3017 RMK AO1 SLP181
T01721006





000
SAUS45 KLKN 022155 COR
MTRP68
METAR KP68 022153Z AUTO 31007KT 17/M01 A3017 RMK AO1 SLP181
T01721006





000
SAUS45 KLKN 022055
MTRP68
METAR KP68 022053Z AUTO VRB03KT 16/M01 A3018 RMK AO1 SLP189
T01561011 58006





000
SAUS45 KLKN 021954
MTRP68
METAR KP68 021953Z AUTO VRB04KT 16/M02 A3019 RMK AO1 SLP191
T01561017





000
SAUS45 KLKN 021854
MTRP68
METAR KP68 021853Z AUTO 21005KT 13/01 A3020 RMK AO1 SLP198 T01330006





000
SAUS45 KLKN 021755
MTRP68
METAR KP68 021753Z AUTO VRB05KT 14/02 A3021 RMK AO1 SLP197 T01390017
10139 20006 50002





000
SAUS45 KLKN 021655
MTRP68
METAR KP68 021653Z AUTO VRB03KT 12/01 A3021 RMK AO1 SLP198 T01220011





000
SAUS45 KLKN 021655
MTRP68
METAR KP68 021653Z AUTO VRB03KT 12/01 A3021 RMK AO1 SLP198 T01220011





000
SAUS45 KLKN 021555
MTRP68
METAR KP68 021553Z AUTO 00000KT 09/00 A3022 RMK AO1 SLP203 T00890000





000
SAUS45 KLKN 021454
MTRP68
METAR KP68 021453Z AUTO 01003KT 08/M01 A3020 RMK AO1 SLP194
T00831006 53012





000
SAUS45 KLKN 021355
MTRP68
METAR KP68 021353Z AUTO 22005KT 03/M01 A3018 RMK AO1 SLP192
T00281006





000
SAUS45 KLKN 021255
MTRP68
METAR KP68 021253Z AUTO 17005KT 02/M01 A3016 RMK AO1 SLP187
T00171011





000
SAUS45 KLKN 021155
MTRP68
METAR KP68 021153Z AUTO 19005KT 01/M02 A3015 RMK AO1 SLP186
T00061017 10033 21017 51008





000
SAUS45 KLKN 021055
MTRP68
METAR KP68 021053Z AUTO 21003KT M01/M03 A3015 RMK AO1 SLP187
T10061028





000
SAUS45 KLKN 021055
MTRP68
METAR KP68 021053Z AUTO 21003KT M01/M03 A3015 RMK AO1 SLP187
T10061028





000
SAUS45 KLKN 020955
MTRP68
METAR KP68 020953Z AUTO 00000KT M01/M03 A3014 RMK AO1 SLP184
T10111033





000
SAUS45 KLKN 020854
MTRP68
METAR KP68 020853Z AUTO 00000KT 00/M03 A3013 RMK AO1 SLP181
T00001028 58001





000
SAUS45 KLKN 020754
MTRP68
METAR KP68 020753Z AUTO 00000KT 00/M02 A3013 RMK AO1 SLP179
T00001022 401170000





000
SAUS45 KLKN 020754
MTRP68
METAR KP68 020753Z AUTO 00000KT 00/M02 A3013 RMK AO1 SLP179
T00001022 401170000





000
SAUS45 KLKN 020655
MTRP68
METAR KP68 020653Z AUTO 18004KT 01/M02 A3014 RMK AO1 SLP184
T00111017





000
SAUS45 KLKN 020655
MTRP68
METAR KP68 020653Z AUTO 18004KT 01/M02 A3014 RMK AO1 SLP184
T00111017





000
SAUS45 KLKN 020555
MTRP68
METAR KP68 020553Z AUTO 20004KT 02/M01 A3013 RMK AO1 SLP179
T00171011 10117 20017 51016





000
SAUS45 KLKN 020555
MTRP68
METAR KP68 020553Z AUTO 20004KT 02/M01 A3013 RMK AO1 SLP179
T00171011 10117 20017 51016





000
SAUS45 KLKN 020455
MTRP68
METAR KP68 020453Z AUTO 00000KT 03/M01 A3012 RMK AO1 SLP171
T00331006





000
SAUS45 KLKN 020354
MTRP68
METAR KP68 020353Z AUTO 00000KT 05/00 A3010 RMK AO1 SLP163 T00500000





000
SAUS45 KLKN 020257 COR
MTRP68
METAR KP68 020253Z AUTO 10005KT 07/01 A3007 RMK AO1 SLP157 T00670011





000
SAUS45 KLKN 020257 COR
MTRP68
METAR KP68 020253Z AUTO 10005KT 07/01 A3007 RMK AO1 SLP157 T00670011





000
SAUS45 KLKN 020256 COR
MTRP68
METAR KP68 020253Z AUTO 10005KT 07/01 A3007 RMK AO1 SLP157 T00670011





000
SAUS45 KLKN 020255
MTRP68
METAR KP68 020253Z AUTO 10005KT 07/01 A3007 RMK AO1 SLP157 T00670011





000
SAUS45 KLKN 020155
MTRP68
METAR KP68 020153Z AUTO 07008KT 10/01 A3006 RMK AO1 SLP146 T01000006





000
SAUS45 KLKN 020054
MTRP68
METAR KP68 020053Z AUTO 35004KT 11/M01 A3006 RMK AO1 SLP148
T01111006





000
SAUS45 KLKN 020054
MTRP68
METAR KP68 020053Z AUTO 35004KT 11/M01 A3006 RMK AO1 SLP148
T01111006





000
SAUS45 KLKN 012354
MTRP68
METAR KP68 012353Z AUTO 01007KT 12/M01 A3006 RMK AO1 SLP145
T01171011 10117 20089 53001





000
SAUS45 KLKN 012354
MTRP68
METAR KP68 012353Z AUTO 01007KT 12/M01 A3006 RMK AO1 SLP145
T01171011 10117 20089 53001





000
SAUS45 KLKN 012254
MTRP68
METAR KP68 012253Z AUTO 05005KT 11/M02 A3005 RMK AO1 SLP142
T01111022





000
SAUS45 KLKN 012254
MTRP68
METAR KP68 012253Z AUTO 05005KT 11/M02 A3005 RMK AO1 SLP142
T01111022





000
SAUS45 KLKN 012155
MTRP68
METAR KP68 012153Z AUTO 00000KT 11/M03 A3006 RMK AO1 SLP151
T01061028





000
SAUS45 KLKN 012055
MTRP68
METAR KP68 012053Z AUTO 08005KT 10/M02 A3006 RMK AO1 SLP151
T01001022 55004





000
SAUS45 KLKN 012055
MTRP68
METAR KP68 012053Z AUTO 08005KT 10/M02 A3006 RMK AO1 SLP151
T01001022 55004





000
SAUS45 KLKN 011955
MTRP68
METAR KP68 011953Z AUTO 06009G14KT 11/M02 A3005 RMK AO1 SLP144
T01061017





000
SAUS45 KLKN 011955
MTRP68
METAR KP68 011953Z AUTO 06009G14KT 11/M02 A3005 RMK AO1 SLP144
T01061017





000
SAUS45 KLKN 011855
MTRP68
METAR KP68 011853Z AUTO 36010KT 09/M01 A3006 RMK AO1 SLP152
T00891011





000
SAUS45 KLKN 011755
MTRP68
METAR KP68 011753Z AUTO 01012KT 09/M01 A3007 RMK AO1 SLP151
T00891006 10100 20039 55000





000
SAUS45 KLKN 011755
MTRP68
METAR KP68 011753Z AUTO 01012KT 09/M01 A3007 RMK AO1 SLP151
T00891006 10100 20039 55000





000
SAUS45 KLKN 011655
MTRP68
METAR KP68 011653Z AUTO 06014KT 09/M01 A3006 RMK AO1 SLP146
T00941011





000
SAUS45 KLKN 011554
MTRP68
METAR KP68 011553Z AUTO 03014KT 08/00 A3007 RMK AO1 SLP150 T00780000





000
SAUS45 KLKN 011454
MTRP68
METAR KP68 011453Z AUTO 00000KT 06/02 A3007 RMK AO1 SLP156 T00560017
53013





000
SAUS45 KLKN 011454
MTRP68
METAR KP68 011453Z AUTO 00000KT 06/02 A3007 RMK AO1 SLP156 T00560017
53013





000
SAUS45 KLKN 011354
MTRP68
METAR KP68 011353Z AUTO 06003KT 04/02 A3006 RMK AO1 SLP147 T00440022





000
SAUS45 KLKN 011354
MTRP68
METAR KP68 011353Z AUTO 06003KT 04/02 A3006 RMK AO1 SLP147 T00440022





000
SAUS45 KLKN 011255
MTRP68
METAR KP68 011253Z AUTO 00000KT 04/02 A3004 RMK AO1 SLP139 T00390017





000
SAUS45 KLKN 011155
MTRP68
METAR KP68 011153Z AUTO 34003KT 04/01 A3002 RMK AO1 SLP135 T00390011
10056 20017 58002





000
SAUS45 KLKN 011055
MTRP68
METAR KP68 011053Z AUTO 35004KT 04/01 A3003 RMK AO1 SLP136 T00390006





000
SAUS45 KLKN 010955
MTRP68
METAR KP68 010953Z AUTO 19005KT 03/01 A3003 RMK AO1 SLP139 T00280006





000
SAUS45 KLKN 010854
MTRP68
METAR KP68 010853Z AUTO 34005KT 02/M01 A3003 RMK AO1 SLP143
T00171006 58005





000
SAUS45 KLKN 010854
MTRP68
METAR KP68 010853Z AUTO 34005KT 02/M01 A3003 RMK AO1 SLP143
T00171006 58005





000
SAUS45 KLKN 010754
MTRP68
METAR KP68 010753Z AUTO 00000KT 03/00 A3006 RMK AO1 SLP150 T00330000
401170028





000
SAUS45 KLKN 010754
MTRP68
METAR KP68 010753Z AUTO 00000KT 03/00 A3006 RMK AO1 SLP150 T00330000
401170028





000
SAUS45 KLKN 010654
MTRP68
METAR KP68 010653Z AUTO 34004KT 04/01 A3006 RMK AO1 SLP150 T00390011





000
SAUS45 KLKN 010554
MTRP68
METAR KP68 010553Z AUTO 34007KT 05/01 A3005 RMK AO1 SLP143 T00500011
10106 20050 50011





000
SAUS45 KLKN 010554
MTRP68
METAR KP68 010553Z AUTO 34007KT 05/01 A3005 RMK AO1 SLP143 T00500011
10106 20050 50011





000
SAUS45 KLKN 010455
MTRP68
METAR KP68 010453Z AUTO 04004KT 06/01 A3006 RMK AO1 SLP146 T00610011





000
SAUS45 KLKN 010354
MTRP68
METAR KP68 010353Z AUTO 04007KT 07/02 A3003 RMK AO1 SLP141 T00670017





000
SAUS45 KLKN 010255
MTRP68
METAR KP68 010253Z AUTO 06006KT 07/02 A3001 RMK AO1 PK WND
05029/0213 SLP137 T00670017 53012





000
SAUS45 KLKN 010154
MTRP68
METAR KP68 010153Z AUTO 02012KT 10/01 A2999 RMK AO1 SLP126 T01000011





000
SAUS45 KLKN 010055
MTRP68
METAR KP68 010053Z AUTO 36014G23KT 10/01 A2999 RMK AO1 SLP124
T01000006





000
SAUS45 KLKN 010055
MTRP68
METAR KP68 010053Z AUTO 36014G23KT 10/01 A2999 RMK AO1 SLP124
T01000006





000
SAUS45 KLKN 302355
MTRP68
METAR KP68 302353Z AUTO 36014KT 11/01 A2997 RMK AO1 SLP115 T01060011
10117 20083 55007





000
SAUS45 KLKN 302255
MTRP68
METAR KP68 302253Z AUTO 01016KT 11/01 A2997 RMK AO1 SLP114 T01110011





000
SAUS45 KLKN 302154
MTRP68
METAR KP68 302153Z AUTO 01014KT 11/01 A2998 RMK AO1 SLP119 T01060006





000
SAUS45 KLKN 302054
MTRP68
METAR KP68 302053Z AUTO 35017KT 11/02 A2999 RMK AO1 SLP124 T01060017
51003





000
SAUS45 KLKN 302054
MTRP68
METAR KP68 302053Z AUTO 35017KT 11/02 A2999 RMK AO1 SLP124 T01060017
51003





000
SAUS45 KLKN 301954
MTRP68
METAR KP68 301953Z AUTO 36018G23KT 09/02 A2999 RMK AO1 PK WND
36026/1907 SLP125 T00940017





000
SAUS45 KLKN 301854
MTRP68
METAR KP68 301853Z AUTO 01018KT 09/02 A2999 RMK AO1 SLP125 T00940022





000
SAUS45 KLKN 301754
MTRP68
METAR KP68 301753Z AUTO 35018G24KT 09/03 A2998 RMK AO1 PK WND
35026/1726 SLP122 T00890028 10094 20033 51003





000
SAUS45 KLKN 301754
MTRP68
METAR KP68 301753Z AUTO 35018G24KT 09/03 A2998 RMK AO1 PK WND
35026/1726 SLP122 T00890028 10094 20033 51003





000
SAUS45 KLKN 301655
MTRP68
METAR KP68 301653Z AUTO 35016KT 08/02 A2998 RMK AO1 SLP126 T00780022





000
SAUS45 KLKN 301555
MTRP68
METAR KP68 301553Z AUTO 36015KT 06/02 A2998 RMK AO1 SLP128 T00610017





000
SAUS45 KLKN 301555
MTRP68
METAR KP68 301553Z AUTO 36015KT 06/02 A2998 RMK AO1 SLP128 T00610017





000
SAUS45 KLKN 301454
MTRP68
METAR KP68 301453Z AUTO 36014KT 04/01 A2997 RMK AO1 SLP129 T00390011
53016





000
SAUS45 KLKN 301454
MTRP68
METAR KP68 301453Z AUTO 36014KT 04/01 A2997 RMK AO1 SLP129 T00390011
53016





000
SAUS45 KLKN 301354
MTRP68
METAR KP68 301353Z AUTO 36013KT 03/01 A2995 RMK AO1 SLP119 T00330006





000
SAUS45 KLKN 301354
MTRP68
METAR KP68 301353Z AUTO 36013KT 03/01 A2995 RMK AO1 SLP119 T00330006





000
SAUS45 KLKN 301254
MTRP68
METAR KP68 301253Z AUTO 01011KT 03/02 A2993 RMK AO1 SLP105 T00330017





000
SAUS45 KLKN 301154
MTRP68
METAR KP68 301153Z AUTO 36010KT 03/01 A2991 RMK AO1 SLP096 60001
70012 T00330011 10039 20028 50005





000
SAUS45 KLKN 301055
MTRP68
METAR KP68 301053Z AUTO 01006KT 03/01 A2992 RMK AO1 SLP100 T00330011





000
SAUS45 KLKN 300955
MTRP68
METAR KP68 300953Z AUTO 34005KT 03/01 A2991 RMK AO1 SLP101 T00330011





000
SAUS45 KLKN 300855
MTRP68
METAR KP68 300853Z AUTO 34004KT 03/02 A2990 RMK AO1 SLP098 60001
T00330017 56007





000
SAUS45 KLKN 300855
MTRP68
METAR KP68 300853Z AUTO 34004KT 03/02 A2990 RMK AO1 SLP098 60001
T00330017 56007





000
SAUS45 KLKN 300754
MTRP68
METAR KP68 300753Z AUTO 35004KT 03/01 A2990 RMK AO1 SLP099 T00330011
401060011





000
SAUS45 KLKN 300654
MTRP68
METAR KP68 300653Z AUTO 03005KT 03/01 A2990 RMK AO1 SLP096 P0001
T00330011





000
SAUS45 KLKN 300454
MTRP68
METAR KP68 300453Z AUTO 05004KT 03/01 A2992 RMK AO1 SLP104 T00330006





000
SAUS45 KLKN 300354
MTRP68
METAR KP68 300353Z AUTO 00000KT 03/01 A2992 RMK AO1 SLP110 T00330006





000
SAUS45 KLKN 300354
MTRP68
METAR KP68 300353Z AUTO 00000KT 03/01 A2992 RMK AO1 SLP110 T00330006





000
SAUS45 KLKN 300254
MTRP68
METAR KP68 300253Z AUTO 02008KT 04/02 A2990 RMK AO1 SLP101 T00390017
53012





000
SAUS45 KLKN 300155
MTRP68
METAR KP68 300153Z AUTO 03013KT 05/02 A2988 RMK AO1 PK WND
29030/0058 SLP099 T00500017





000
SAUS45 KLKN 300055
MTRP68
METAR KP68 300053Z AUTO 29012G17KT 09/02 A2986 RMK AO1 SLP085
T00890017





000
SAUS45 KLKN 292354
MTRP68
METAR KP68 292353Z AUTO 04004KT 11/02 A2985 RMK AO1 SLP077 60003
T01060017 10106 20061 58020





    US Dept of Commerce
    National Oceanic and Atmospheric Administration
    National Weather Service
    1325 East West Highway
    Silver Spring, MD 20910
    Page Author: NWS Internet Services Team
Disclaimer
Information Quality
Credits
Glossary
Privacy Policy
Freedom of Information Act (FOIA)
About Us
Career Opportunities